createdAt,value
2023-05-11T00:00:22.167Z,101154.44
2023-05-11T00:02:48.752Z,101144.78
2023-05-11T00:05:15.418Z,101146.59
2023-05-11T00:07:41.857Z,101146.59
2023-05-11T00:10:09.247Z,101138.75
2023-05-11T00:12:37.099Z,101137.78
2023-05-11T00:15:04.159Z,101148.91
2023-05-11T00:17:30.816Z,101146.09
2023-05-11T00:19:57.389Z,101146.78
2023-05-11T00:22:23.866Z,101144.94
2023-05-11T00:24:50.334Z,101138.78
2023-05-11T00:27:16.835Z,101137.09
2023-05-11T00:29:44.693Z,101135.28
2023-05-11T00:32:11.253Z,101135.28
2023-05-11T00:34:37.741Z,101142.44
2023-05-11T00:37:05.083Z,101139.94
2023-05-11T00:39:31.554Z,101141.75
2023-05-11T00:41:58.052Z,101142.78
2023-05-11T00:44:24.513Z,101143.59
2023-05-11T00:46:52.668Z,101138.25
2023-05-11T00:49:19.208Z,101133.94
2023-05-11T00:51:45.721Z,101130.44
2023-05-11T00:54:12.706Z,101132.44
2023-05-11T00:56:39.447Z,101131.59
2023-05-11T00:59:05.950Z,101139.91
2023-05-11T01:01:32.446Z,101139.41
2023-05-11T01:04:00.286Z,101138.56
2023-05-11T01:06:31.860Z,101134.91
2023-05-11T01:09:03.646Z,101136.09
2023-05-11T01:11:37.333Z,101135.25
2023-05-11T01:14:09.258Z,101135.56
2023-05-11T01:16:40.396Z,101137.41
2023-05-11T01:19:18.184Z,101140.22
2023-05-11T01:21:48.292Z,101134.88
2023-05-11T01:24:31.718Z,101142.03
2023-05-11T01:27:23.181Z,101139.53
2023-05-11T01:30:26.098Z,101134.88
2023-05-11T01:32:54.975Z,101133.06
2023-05-11T01:35:24.724Z,101134.72
2023-05-11T01:37:55.226Z,101132.06
2023-05-11T01:40:25.803Z,101135.72
2023-05-11T01:42:59.958Z,101138.38
2023-05-11T01:45:29.730Z,101134.88
2023-05-11T01:47:57.761Z,101134.88
2023-05-11T01:50:25.825Z,101140.22
2023-05-11T01:52:53.383Z,101135.03
2023-05-11T01:55:22.087Z,101136.56
2023-05-11T01:57:52.913Z,101140.72
2023-05-11T02:00:20.561Z,101134.72
2023-05-11T02:02:49.731Z,101141.34
2023-05-11T02:05:20.646Z,101138.00
2023-05-11T02:07:49.096Z,101137.00
2023-05-11T02:10:16.777Z,101146.84
2023-05-11T02:12:45.025Z,101151.03
2023-05-11T02:15:12.727Z,101145.69
2023-05-11T02:17:40.399Z,101144.69
2023-05-11T02:20:10.718Z,101153.69
2023-05-11T02:22:38.421Z,101146.84
2023-05-11T02:25:06.790Z,101148.66
2023-05-11T02:27:33.342Z,101147.66
2023-05-11T02:29:59.909Z,101154.69
2023-05-11T02:32:28.269Z,101145.84
2023-05-11T02:35:00.406Z,101152.00
2023-05-11T02:37:30.878Z,101146.84
2023-05-11T02:40:01.189Z,101143.50
2023-05-11T02:42:30.673Z,101147.16
2023-05-11T02:45:00.525Z,101156.16
2023-05-11T02:47:29.523Z,101154.34
2023-05-11T02:49:58.967Z,101145.66
2023-05-11T02:52:27.058Z,101144.00
2023-05-11T02:54:56.672Z,101149.31
2023-05-11T02:57:24.325Z,101141.63
2023-05-11T02:59:51.625Z,101140.81
2023-05-11T03:02:18.335Z,101144.63
2023-05-11T03:04:44.907Z,101151.13
2023-05-11T03:07:11.478Z,101141.78
2023-05-11T03:09:38.069Z,101146.56
2023-05-11T03:12:06.972Z,101153.53
2023-05-11T03:14:34.716Z,101147.84
2023-05-11T03:17:02.680Z,101152.53
2023-05-11T03:19:30.890Z,101153.16
2023-05-11T03:21:58.584Z,101158.19
2023-05-11T03:24:25.968Z,101152.03
2023-05-11T03:26:54.061Z,101154.00
2023-05-11T03:29:23.949Z,101153.16
2023-05-11T03:31:51.401Z,101149.03
2023-05-11T03:34:18.102Z,101146.50
2023-05-11T03:36:46.755Z,101146.16
2023-05-11T03:39:16.138Z,101141.69
2023-05-11T03:41:44.540Z,101144.34
2023-05-11T03:44:13.095Z,101144.19
2023-05-11T03:46:43.576Z,101147.84
2023-05-11T03:49:13.517Z,101147.00
2023-05-11T03:51:41.101Z,101147.84
2023-05-11T03:54:07.817Z,101142.50
2023-05-11T03:56:36.174Z,101140.03
2023-05-11T03:59:02.770Z,101142.69
2023-05-11T04:01:29.940Z,101147.19
2023-05-11T04:03:57.914Z,101149.84
2023-05-11T04:06:24.555Z,101153.50
2023-05-11T04:08:51.070Z,101142.16
2023-05-11T04:11:17.591Z,101143.84
2023-05-11T04:13:44.117Z,101142.16
2023-05-11T04:16:10.665Z,101147.34
2023-05-11T04:18:37.348Z,101153.50
2023-05-11T04:21:05.426Z,101148.19
2023-05-11T04:23:31.882Z,101155.19
2023-05-11T04:25:58.383Z,101155.00
2023-05-11T04:28:24.949Z,101154.84
2023-05-11T04:30:54.293Z,101161.84
2023-05-11T04:33:21.061Z,101159.03
2023-05-11T04:35:50.095Z,101159.72
2023-05-11T04:38:18.006Z,101158.72
2023-05-11T04:40:44.586Z,101159.41
2023-05-11T04:43:11.059Z,101162.91
2023-05-11T04:45:37.547Z,101168.72
2023-05-11T04:48:04.813Z,101159.59
2023-05-11T04:50:31.376Z,101167.25
2023-05-11T04:52:57.888Z,101177.09
2023-05-11T04:55:25.767Z,101175.72
2023-05-11T04:57:52.247Z,101176.88
2023-05-11T05:00:20.121Z,101183.19
2023-05-11T05:02:47.155Z,101179.38
2023-05-11T05:05:13.736Z,101182.19
2023-05-11T05:07:40.210Z,101177.69
2023-05-11T05:10:07.306Z,101190.03
2023-05-11T05:12:35.258Z,101189.88
2023-05-11T05:15:01.819Z,101188.72
2023-05-11T05:17:28.532Z,101187.59
2023-05-11T05:19:55.091Z,101185.75
2023-05-11T05:22:21.620Z,101189.41
2023-05-11T05:24:48.129Z,101187.75
2023-05-11T05:27:14.664Z,101188.88
2023-05-11T05:29:42.513Z,101196.88
2023-05-11T05:32:09.006Z,101195.88
2023-05-11T05:34:35.508Z,101198.41
2023-05-11T05:37:02.037Z,101200.91
2023-05-11T05:39:28.535Z,101202.56
2023-05-11T05:41:55.094Z,101199.72
2023-05-11T05:44:21.616Z,101202.25
2023-05-11T05:46:49.438Z,101213.56
2023-05-11T05:49:15.946Z,101214.25
2023-05-11T05:51:42.489Z,101206.59
2023-05-11T05:54:09.000Z,101213.81
2023-05-11T05:56:35.516Z,101221.00
2023-05-11T05:59:02.068Z,101216.69
2023-05-11T06:01:28.626Z,101226.72
2023-05-11T06:03:56.656Z,101230.25
2023-05-11T06:06:23.437Z,101226.44
2023-05-11T06:08:49.952Z,101233.09
2023-05-11T06:11:16.491Z,101236.28
2023-05-11T06:13:43.033Z,101231.47
2023-05-11T06:16:09.593Z,101235.13
2023-05-11T06:18:36.119Z,101233.78
2023-05-11T06:21:04.008Z,101234.31
2023-05-11T06:23:30.479Z,101242.81
2023-05-11T06:25:57.093Z,101234.16
2023-05-11T06:28:23.624Z,101236.34
2023-05-11T06:30:50.188Z,101240.22
2023-05-11T06:33:16.773Z,101243.25
2023-05-11T06:35:43.314Z,101242.75
2023-05-11T06:38:11.112Z,101243.94
2023-05-11T06:40:37.665Z,101239.59
2023-05-11T06:43:04.175Z,101232.94
2023-05-11T06:45:30.849Z,101238.75
2023-05-11T06:47:57.523Z,101234.25
2023-05-11T06:50:27.188Z,101235.94
2023-05-11T06:52:54.124Z,101239.59
2023-05-11T06:55:22.736Z,101237.94
2023-05-11T06:57:49.227Z,101237.75
2023-05-11T07:00:17.116Z,101243.25
2023-05-11T07:02:43.803Z,101242.59
2023-05-11T07:05:10.307Z,101247.75
2023-05-11T07:07:36.847Z,101246.59
2023-05-11T07:10:03.537Z,101248.28
2023-05-11T07:12:31.421Z,101251.78
2023-05-11T07:14:58.022Z,101252.94
2023-05-11T07:17:24.653Z,101256.44
2023-05-11T07:19:51.322Z,101248.63
2023-05-11T07:22:17.850Z,101249.63
2023-05-11T07:24:44.374Z,101251.47
2023-05-11T07:27:10.847Z,101250.97
2023-05-11T07:29:38.721Z,101251.13
2023-05-11T07:32:06.132Z,101259.16
2023-05-11T07:34:32.812Z,101266.16
2023-05-11T07:36:59.285Z,101256.16
2023-05-11T07:39:25.781Z,101266.69
2023-05-11T07:41:52.268Z,101258.50
2023-05-11T07:44:18.766Z,101266.84
2023-05-11T07:46:46.714Z,101265.31
2023-05-11T07:49:18.927Z,101260.16
2023-05-11T07:51:51.882Z,101274.34
2023-05-11T07:54:20.230Z,101270.16
2023-05-11T07:56:48.304Z,101267.00
2023-05-11T07:59:14.848Z,101269.66
2023-05-11T08:01:41.459Z,101270.50
2023-05-11T08:04:09.483Z,101265.31
2023-05-11T08:06:36.057Z,101268.00
2023-05-11T08:09:02.593Z,101267.69
2023-05-11T08:11:29.130Z,101268.31
2023-05-11T08:13:55.650Z,101270.50
2023-05-11T08:16:22.165Z,101278.50
2023-05-11T08:18:48.679Z,101271.16
2023-05-11T08:21:16.590Z,101259.16
2023-05-11T08:23:44.635Z,101267.34
2023-05-11T08:26:11.730Z,101271.00
2023-05-11T08:28:38.228Z,101269.66
2023-05-11T08:31:05.085Z,101271.81
2023-05-11T08:33:38.230Z,101272.00
2023-05-11T08:36:06.756Z,101273.50
2023-05-11T08:38:34.802Z,101273.00
2023-05-11T08:41:01.700Z,101275.50
2023-05-11T08:43:29.166Z,101267.50
2023-05-11T08:46:00.487Z,101271.00
2023-05-11T08:48:27.152Z,101269.16
2023-05-11T08:50:53.731Z,101272.16
2023-05-11T08:53:20.392Z,101274.50
2023-05-11T08:55:49.854Z,101279.16
2023-05-11T08:58:17.770Z,101274.31
2023-05-11T09:00:44.362Z,101274.66
2023-05-11T09:03:11.504Z,101267.63
2023-05-11T09:05:38.521Z,101278.28
2023-05-11T09:08:07.481Z,101281.91
2023-05-11T09:10:35.822Z,101283.59
2023-05-11T09:13:03.666Z,101283.63
2023-05-11T09:15:36.964Z,101290.00
2023-05-11T09:18:04.477Z,101295.00
2023-05-11T09:20:33.895Z,101295.72
2023-05-11T09:23:00.996Z,101296.88
2023-05-11T09:25:30.080Z,101287.34
2023-05-11T09:27:59.547Z,101290.31
2023-05-11T09:30:27.796Z,101290.16
2023-05-11T09:32:55.673Z,101295.88
2023-05-11T09:35:24.329Z,101298.22
2023-05-11T09:38:00.766Z,101293.00
2023-05-11T09:40:33.488Z,101290.81
2023-05-11T09:43:01.247Z,101296.66
2023-05-11T09:45:42.883Z,101294.97
2023-05-11T09:48:24.395Z,101289.28
2023-05-11T09:50:52.335Z,101288.56
2023-05-11T09:53:18.870Z,101288.06
2023-05-11T09:55:51.254Z,101284.50
2023-05-11T09:58:17.767Z,101280.78
2023-05-11T10:00:50.257Z,101289.38
2023-05-11T10:03:17.141Z,101281.66
2023-05-11T10:05:56.733Z,101283.16
2023-05-11T10:08:28.043Z,101283.44
2023-05-11T10:10:55.728Z,101283.91
2023-05-11T10:13:23.639Z,101285.44
2023-05-11T10:15:52.446Z,101287.53
2023-05-11T10:18:20.430Z,101289.63
2023-05-11T10:20:47.560Z,101289.28
2023-05-11T10:23:14.451Z,101290.44
2023-05-11T10:25:41.184Z,101292.56
2023-05-11T10:28:08.823Z,101291.84
2023-05-11T10:30:35.703Z,101295.16
2023-05-11T10:33:03.858Z,101290.53
2023-05-11T10:35:31.548Z,101294.13
2023-05-11T10:37:58.698Z,101300.34
2023-05-11T10:40:25.323Z,101299.34
2023-05-11T10:43:21.565Z,101293.09
2023-05-11T10:45:52.734Z,101295.72
2023-05-11T10:48:54.810Z,101295.41
2023-05-11T10:51:56.507Z,101295.78
2023-05-11T10:54:38.574Z,101298.47
2023-05-11T10:57:13.062Z,101283.03
2023-05-11T11:00:06.089Z,101278.44
2023-05-11T11:02:32.752Z,101285.22
2023-05-11T11:05:00.853Z,101295.22
2023-05-11T11:07:27.442Z,101281.38
2023-05-11T11:09:56.597Z,101279.28
2023-05-11T11:12:24.230Z,101282.00
2023-05-11T11:14:56.455Z,101275.28
2023-05-11T11:17:24.287Z,101272.81
2023-05-11T11:19:50.904Z,101277.00
2023-05-11T11:22:44.326Z,101274.44
2023-05-11T11:25:11.848Z,101267.66
2023-05-11T11:27:56.974Z,101269.06
2023-05-11T11:30:24.753Z,101267.09
2023-05-11T11:32:52.688Z,101259.41
2023-05-11T11:35:47.514Z,101268.88
2023-05-11T11:38:17.499Z,101271.66
2023-05-11T11:40:51.108Z,101279.59
2023-05-11T11:43:20.253Z,101271.28
2023-05-11T11:45:51.389Z,101261.19
2023-05-11T11:48:21.900Z,101264.66
2023-05-11T11:51:00.152Z,101267.44
2023-05-11T11:54:03.365Z,101263.81
2023-05-11T11:56:44.892Z,101263.16
2023-05-11T11:59:12.284Z,101258.72
2023-05-11T12:01:39.892Z,101264.22
2023-05-11T12:04:20.068Z,101260.31
2023-05-11T12:06:56.251Z,101265.81
2023-05-11T12:09:22.776Z,101263.91
2023-05-11T12:11:51.213Z,101263.59
2023-05-11T12:14:19.071Z,101259.34
2023-05-11T12:17:00.540Z,101261.69
2023-05-11T12:19:27.156Z,101249.28
2023-05-11T12:21:53.756Z,101260.59
2023-05-11T12:24:21.017Z,101248.53
2023-05-11T12:26:47.575Z,101248.63
2023-05-11T12:29:15.766Z,101254.00
2023-05-11T12:31:44.345Z,101253.56
2023-05-11T12:34:14.713Z,101261.16
2023-05-11T12:36:41.359Z,101254.47
2023-05-11T12:39:08.008Z,101247.19
2023-05-11T12:41:34.875Z,101241.88
2023-05-11T12:44:01.846Z,101239.06
2023-05-11T12:46:29.975Z,101240.06
2023-05-11T12:48:58.517Z,101240.31
2023-05-11T12:51:48.528Z,101248.00
2023-05-11T12:54:32.013Z,101248.06
2023-05-11T12:56:59.740Z,101241.59
2023-05-11T12:59:35.051Z,101235.50
2023-05-11T13:02:07.663Z,101242.44
2023-05-11T13:04:34.189Z,101236.66
2023-05-11T13:07:00.995Z,101235.47
2023-05-11T13:09:28.043Z,101239.00
2023-05-11T13:12:11.576Z,101225.72
2023-05-11T13:14:38.422Z,101232.19
2023-05-11T13:17:06.511Z,101224.53
2023-05-11T13:19:33.142Z,101227.66
2023-05-11T13:22:00.256Z,101222.75
2023-05-11T13:24:26.856Z,101225.91
2023-05-11T13:26:53.998Z,101218.69
2023-05-11T13:29:20.518Z,101220.84
2023-05-11T13:31:48.536Z,101220.00
2023-05-11T13:34:16.665Z,101215.06
2023-05-11T13:36:43.610Z,101220.28
2023-05-11T13:39:10.089Z,101221.75
2023-05-11T13:41:36.813Z,101223.75
2023-05-11T13:44:03.543Z,101211.97
2023-05-11T13:46:30.106Z,101210.97
2023-05-11T13:48:56.730Z,101208.00
2023-05-11T13:51:24.564Z,101209.44
2023-05-11T13:53:51.055Z,101205.59
2023-05-11T13:56:17.577Z,101205.06
2023-05-11T13:58:44.057Z,101199.81
2023-05-11T14:01:10.568Z,101205.63
2023-05-11T14:03:37.148Z,101202.38
2023-05-11T14:06:04.066Z,101194.97
2023-05-11T14:08:31.925Z,101199.94
2023-05-11T14:10:58.430Z,101205.59
2023-05-11T14:13:25.025Z,101203.13
2023-05-11T14:15:51.955Z,101202.94
2023-05-11T14:18:18.711Z,101200.38
2023-05-11T14:20:45.341Z,101203.06
2023-05-11T14:23:11.841Z,101200.59
2023-05-11T14:25:39.705Z,101198.28
2023-05-11T14:28:06.192Z,101192.91
2023-05-11T14:30:32.762Z,101193.75
2023-05-11T14:32:59.431Z,101191.13
2023-05-11T14:35:26.015Z,101189.84
2023-05-11T14:37:52.543Z,101193.97
2023-05-11T14:40:19.133Z,101188.97
2023-05-11T14:42:46.944Z,101190.00
2023-05-11T14:45:13.460Z,101189.69
2023-05-11T14:47:40.104Z,101193.22
2023-05-11T14:50:08.197Z,101184.56
2023-05-11T14:52:34.706Z,101189.47
2023-05-11T14:55:01.254Z,101193.41
2023-05-11T14:57:27.845Z,101193.03
2023-05-11T15:00:00.117Z,101186.69
2023-05-11T15:02:27.549Z,101186.34
2023-05-11T15:04:54.131Z,101185.22
2023-05-11T15:07:20.671Z,101187.00
2023-05-11T15:09:47.141Z,101186.47
2023-05-11T15:12:13.675Z,101187.84
2023-05-11T15:14:40.136Z,101184.16
2023-05-11T15:17:08.073Z,101196.09
2023-05-11T15:19:34.603Z,101198.78
2023-05-11T15:22:01.073Z,101189.25
2023-05-11T15:24:27.589Z,101190.28
2023-05-11T15:26:54.042Z,101197.31
2023-05-11T15:29:20.531Z,101194.81
2023-05-11T15:31:47.106Z,101196.66
2023-05-11T15:34:14.980Z,101193.63
2023-05-11T15:36:41.555Z,101195.06
2023-05-11T15:39:08.075Z,101191.56
2023-05-11T15:41:34.627Z,101189.09
2023-05-11T15:44:01.146Z,101193.03
2023-05-11T15:46:28.060Z,101190.81
2023-05-11T15:48:56.295Z,101189.78
2023-05-11T15:51:25.648Z,101192.72
2023-05-11T15:53:52.186Z,101187.00
2023-05-11T15:56:18.649Z,101197.59
2023-05-11T15:58:45.146Z,101186.13
2023-05-11T16:01:11.918Z,101188.44
2023-05-11T16:03:38.704Z,101188.69
2023-05-11T16:06:06.077Z,101194.13
2023-05-11T16:08:34.431Z,101184.00
2023-05-11T16:11:01.022Z,101185.50
2023-05-11T16:13:27.510Z,101184.28
2023-05-11T16:15:54.065Z,101187.63
2023-05-11T16:18:20.689Z,101184.75
2023-05-11T16:20:47.293Z,101190.13
2023-05-11T16:23:13.863Z,101185.75
2023-05-11T16:25:41.673Z,101188.44
2023-05-11T16:28:08.167Z,101189.19
2023-05-11T16:30:34.739Z,101194.19
2023-05-11T16:33:01.267Z,101189.19
2023-05-11T16:35:27.868Z,101192.47
2023-05-11T16:37:54.349Z,101190.34
2023-05-11T16:40:21.369Z,101189.06
2023-05-11T16:42:49.600Z,101195.91
2023-05-11T16:45:16.390Z,101188.22
2023-05-11T16:47:43.208Z,101188.16
2023-05-11T16:50:10.564Z,101189.84
2023-05-11T16:52:37.037Z,101187.28
2023-05-11T16:55:04.056Z,101189.56
2023-05-11T16:57:30.577Z,101192.00
2023-05-11T16:59:58.455Z,101193.38
2023-05-11T17:02:24.998Z,101188.47
2023-05-11T17:04:51.546Z,101195.41
2023-05-11T17:07:18.044Z,101189.97
2023-05-11T17:09:44.512Z,101190.31
2023-05-11T17:12:11.324Z,101196.47
2023-05-11T17:14:37.807Z,101197.97
2023-05-11T17:17:05.777Z,101197.22
2023-05-11T17:19:32.284Z,101202.22
2023-05-11T17:21:58.784Z,101200.09
2023-05-11T17:24:25.562Z,101202.31
2023-05-11T17:26:52.106Z,101203.66
2023-05-11T17:29:18.621Z,101201.16
2023-05-11T17:31:45.586Z,101197.88
2023-05-11T17:34:13.733Z,101198.59
2023-05-11T17:36:40.280Z,101203.13
2023-05-11T17:39:07.211Z,101200.81
2023-05-11T17:41:33.747Z,101195.66
2023-05-11T17:44:00.255Z,101199.53
2023-05-11T17:46:26.901Z,101200.53
2023-05-11T17:48:53.428Z,101197.22
2023-05-11T17:51:21.534Z,101201.38
2023-05-11T17:53:48.041Z,101202.75
2023-05-11T17:56:14.557Z,101195.91
2023-05-11T17:58:41.279Z,101201.47
2023-05-11T18:01:08.234Z,101197.75
2023-05-11T18:03:35.305Z,101200.44
2023-05-11T18:06:01.971Z,101199.53
2023-05-11T18:08:29.848Z,101211.25
2023-05-11T18:10:56.466Z,101204.63
2023-05-11T18:13:22.998Z,101202.78
2023-05-11T18:15:49.609Z,101207.09
2023-05-11T18:18:16.353Z,101221.22
2023-05-11T18:20:42.852Z,101223.44
2023-05-11T18:23:09.317Z,101221.69
2023-05-11T18:25:37.229Z,101223.06
2023-05-11T18:28:03.714Z,101224.28
2023-05-11T18:30:30.382Z,101224.63
2023-05-11T18:32:56.963Z,101225.81
2023-05-11T18:35:23.494Z,101224.50
2023-05-11T18:37:50.409Z,101229.41
2023-05-11T18:40:17.512Z,101229.75
2023-05-11T18:42:45.565Z,101223.09
2023-05-11T18:45:12.106Z,101237.69
2023-05-11T18:47:38.591Z,101222.81
2023-05-11T18:50:06.303Z,101232.22
2023-05-11T18:52:32.802Z,101232.22
2023-05-11T18:54:59.343Z,101227.41
2023-05-11T18:57:25.822Z,101232.13
2023-05-11T18:59:53.751Z,101239.31
2023-05-11T19:02:20.253Z,101232.47
2023-05-11T19:04:46.788Z,101237.53
2023-05-11T19:07:13.308Z,101243.91
2023-05-11T19:09:39.802Z,101240.69
2023-05-11T19:12:07.061Z,101251.75
2023-05-11T19:14:33.742Z,101250.47
2023-05-11T19:17:02.312Z,101253.31
2023-05-11T19:19:29.962Z,101255.16
2023-05-11T19:21:56.489Z,101258.84
2023-05-11T19:24:22.981Z,101264.38
2023-05-11T19:27:02.513Z,101267.22
2023-05-11T19:29:32.125Z,101273.59
2023-05-11T19:31:58.659Z,101276.97
2023-05-11T19:34:26.518Z,101275.31
2023-05-11T19:36:52.992Z,101276.50
2023-05-11T19:39:19.723Z,101284.88
2023-05-11T19:41:46.283Z,101280.06
2023-05-11T19:44:12.772Z,101281.06
2023-05-11T19:46:39.440Z,101288.25
2023-05-11T19:49:06.049Z,101286.59
2023-05-11T19:51:33.864Z,101280.75
2023-05-11T19:54:00.317Z,101280.94
2023-05-11T19:56:26.770Z,101289.13
2023-05-11T19:58:53.329Z,101288.66
2023-05-11T20:01:19.889Z,101290.47
2023-05-11T20:03:46.588Z,101289.81
2023-05-11T20:06:13.217Z,101294.88
2023-05-11T20:08:41.038Z,101295.03
2023-05-11T20:11:07.594Z,101297.88
2023-05-11T20:13:34.097Z,101297.22
2023-05-11T20:16:00.639Z,101294.72
2023-05-11T20:18:27.157Z,101294.88
2023-05-11T20:20:53.651Z,101296.91
2023-05-11T20:23:20.162Z,101298.09
2023-05-11T20:25:47.988Z,101302.63
2023-05-11T20:28:14.485Z,101300.28
2023-05-11T20:30:41.008Z,101303.94
2023-05-11T20:35:36.944Z,101303.94
2023-05-11T20:38:03.421Z,101306.78
2023-05-11T20:40:29.950Z,101305.97
2023-05-11T20:42:57.771Z,101315.00
2023-05-11T20:45:24.275Z,101312.50
2023-05-11T20:47:50.892Z,101313.69
2023-05-11T20:50:17.613Z,101308.50
2023-05-11T20:52:44.197Z,101304.16
2023-05-11T20:55:10.659Z,101312.19
2023-05-11T20:57:37.136Z,101311.50
2023-05-11T21:00:06.506Z,101304.50
2023-05-11T21:02:33.130Z,101303.84
2023-05-11T21:04:59.780Z,101305.03
2023-05-11T21:07:26.328Z,101304.34
2023-05-11T21:09:52.800Z,101302.84
2023-05-11T21:12:19.348Z,101307.53
2023-05-11T21:14:45.876Z,101299.69
2023-05-11T21:17:13.908Z,101300.03
2023-05-11T21:19:40.531Z,101302.03
2023-05-11T21:22:07.058Z,101305.22
2023-05-11T21:24:35.104Z,101301.91
2023-05-11T21:27:01.699Z,101306.41
2023-05-11T21:29:28.269Z,101309.25
2023-05-11T21:31:54.767Z,101314.59
2023-05-11T21:34:22.633Z,101304.91
2023-05-11T21:36:49.106Z,101313.09
2023-05-11T21:39:15.652Z,101312.41
2023-05-11T21:41:42.174Z,101310.72
2023-05-11T21:44:08.663Z,101315.38
2023-05-11T21:46:35.162Z,101307.38
2023-05-11T21:49:01.664Z,101311.06
2023-05-11T21:51:29.541Z,101303.38
2023-05-11T21:53:56.002Z,101313.41
2023-05-11T21:56:22.762Z,101306.38
2023-05-11T21:58:49.269Z,101313.41
2023-05-11T22:01:15.916Z,101309.22
2023-05-11T22:03:42.682Z,101311.72
2023-05-11T22:06:09.247Z,101308.06
2023-05-11T22:08:37.059Z,101306.06
2023-05-11T22:11:03.611Z,101310.38
2023-05-11T22:13:30.134Z,101308.88
2023-05-11T22:15:56.668Z,101305.72
2023-05-11T22:18:23.402Z,101299.06
2023-05-11T22:20:49.942Z,101307.22
2023-05-11T22:23:16.474Z,101303.38
2023-05-11T22:25:44.362Z,101309.09
2023-05-11T22:28:10.893Z,101298.03
2023-05-11T22:30:37.456Z,101296.06
2023-05-11T22:33:04.064Z,101301.72
2023-05-11T22:35:30.755Z,101296.91
2023-05-11T22:37:57.352Z,101300.38
2023-05-11T22:40:23.833Z,101299.72
2023-05-11T22:42:51.678Z,101295.38
2023-05-11T22:45:18.197Z,101289.38
2023-05-11T22:47:44.713Z,101297.69
2023-05-11T22:50:11.220Z,101303.03
2023-05-11T22:52:37.973Z,101300.03
2023-05-11T22:55:05.627Z,101299.91
2023-05-11T22:57:32.119Z,101301.72
2023-05-11T22:59:59.991Z,101298.91
2023-05-11T23:02:26.560Z,101304.56
2023-05-11T23:04:53.134Z,101301.88
2023-05-11T23:07:19.937Z,101302.41
2023-05-11T23:09:46.623Z,101300.06
2023-05-11T23:12:13.180Z,101298.38
2023-05-11T23:14:39.712Z,101296.06
2023-05-11T23:17:07.581Z,101286.69
2023-05-11T23:19:34.145Z,101295.38
2023-05-11T23:22:00.932Z,101297.91
2023-05-11T23:24:27.473Z,101287.22
2023-05-11T23:26:53.992Z,101286.53
2023-05-11T23:29:20.697Z,101284.03
2023-05-11T23:31:47.344Z,101278.53
2023-05-11T23:34:15.233Z,101283.88
2023-05-11T23:36:41.831Z,101278.69
2023-05-11T23:39:08.405Z,101282.84
2023-05-11T23:41:34.938Z,101278.84
2023-05-11T23:44:01.415Z,101268.50
2023-05-11T23:46:27.920Z,101265.66
2023-05-11T23:48:54.453Z,101260.00
2023-05-11T23:51:22.296Z,101271.84
2023-05-11T23:53:48.836Z,101260.69
2023-05-11T23:56:15.408Z,101259.81
2023-05-11T23:58:42.027Z,101253.97
